Time;durP1;ratioP1;P1;durP2;ratioP2;P2;SDS_P1;SDS_P2;PMS_P1;PMS_P2;Temp;Humidity;BMP_temperature;BMP_pressure;BME280_temperature;BME280_humidity;BME280_pressure;Samples;Min_cycle;Max_cycle;Signal;HPM_P1;HPM_P2
2021/01/19 00:00:29;;;;;;;56.20;33.00;;;;;;;;;;5032818;28;20105;-70
2021/01/19 00:02:55;;;;;;;59.30;34.40;;;;;;;;;;5033292;28;20029;-70
2021/01/19 00:05:21;;;;;;;55.00;32.10;;;;;;;;;;5032861;28;20558;-70
2021/01/19 00:07:47;;;;;;;56.83;33.37;;;;;;;;;;5032689;28;20038;-71
2021/01/19 00:10:13;;;;;;;56.03;33.23;;;;;;;;;;5033229;28;20198;-70
2021/01/19 00:12:39;;;;;;;58.17;34.37;;;;;;;;;;5036946;28;20030;-70
2021/01/19 00:15:07;;;;;;;54.90;34.40;;;;;;;;;;5036814;28;20040;-70
2021/01/19 00:17:33;;;;;;;59.47;32.47;;;;;;;;;;5036922;28;20022;-70
2021/01/19 00:19:59;;;;;;;55.93;32.50;;;;;;;;;;5037384;28;20033;-70
2021/01/19 00:22:25;;;;;;;51.07;29.03;;;;;;;;;;5036911;28;20482;-70
2021/01/19 00:24:51;;;;;;;50.80;29.73;;;;;;;;;;5036642;28;20033;-70
2021/01/19 00:27:17;;;;;;;47.23;28.53;;;;;;;;;;5036908;28;20034;-70
2021/01/19 00:29:43;;;;;;;51.20;29.33;;;;;;;;;;5036805;28;20101;-70
2021/01/19 00:32:09;;;;;;;51.43;29.30;;;;;;;;;;5036564;28;20036;-70
2021/01/19 00:34:35;;;;;;;55.07;30.70;;;;;;;;;;5036448;28;20075;-70
2021/01/19 00:37:01;;;;;;;55.33;31.60;;;;;;;;;;5036493;28;20029;-70
2021/01/19 00:39:27;;;;;;;55.00;31.87;;;;;;;;;;5036499;28;20546;-70
2021/01/19 00:41:53;;;;;;;57.17;31.37;;;;;;;;;;5036512;28;20041;-70
2021/01/19 00:44:19;;;;;;;57.33;31.97;;;;;;;;;;5036428;28;20064;-70
2021/01/19 00:46:45;;;;;;;55.77;31.47;;;;;;;;;;5036077;28;20033;-70
2021/01/19 00:49:11;;;;;;;58.77;32.80;;;;;;;;;;5036521;28;20433;-70
2021/01/19 00:51:38;;;;;;;54.77;31.53;;;;;;;;;;5036376;28;20371;-70
2021/01/19 00:54:05;;;;;;;53.43;32.67;;;;;;;;;;5034938;28;20029;-70
2021/01/19 00:56:41;;;;;;;57.00;34.77;;;;;;;;;;5036114;28;20040;-70
2021/01/19 00:59:08;;;;;;;57.67;34.10;;;;;;;;;;5036030;28;20084;-70
2021/01/19 01:01:34;;;;;;;55.50;32.83;;;;;;;;;;5035755;28;20042;-70
2021/01/19 01:04:00;;;;;;;59.27;33.03;;;;;;;;;;5036080;28;20056;-70
2021/01/19 01:06:27;;;;;;;66.00;35.10;;;;;;;;;;5035947;28;20059;-70
2021/01/19 01:08:53;;;;;;;60.23;33.30;;;;;;;;;;5035392;28;20105;-70
2021/01/19 01:11:19;;;;;;;59.50;34.97;;;;;;;;;;5035909;28;20026;-70
2021/01/19 01:13:45;;;;;;;61.00;34.23;;;;;;;;;;5035513;28;20029;-70
2021/01/19 01:16:12;;;;;;;60.43;35.27;;;;;;;;;;5035787;28;20493;-70
2021/01/19 01:18:38;;;;;;;62.93;36.03;;;;;;;;;;5035863;28;20024;-70
2021/01/19 01:21:04;;;;;;;57.17;33.57;;;5.30;57.70;;;;;;5035861;28;20474;-70
2021/01/19 01:23:30;;;;;;;59.00;34.93;;;0.20;75.40;;;;;;5035730;28;20037;-70
2021/01/19 01:25:56;;;;;;;64.10;36.13;;;0.20;74.70;;;;;;5035596;28;20032;-70
2021/01/19 01:28:21;;;;;;;60.00;35.07;;;0.10;74.80;;;;;;5035568;28;20053;-70
2021/01/19 01:30:47;;;;;;;65.20;35.87;;;0.10;74.60;;;;;;5035443;28;20398;-70
2021/01/19 01:33:13;;;;;;;63.20;36.37;;;0.10;74.00;;;;;;5035714;28;20029;-70
2021/01/19 01:35:38;;;;;;;60.37;36.53;;;0.10;74.00;;;;;;5035817;28;20036;-70
2021/01/19 01:38:04;;;;;;;60.57;35.80;;;0.10;73.50;;;;;;5035463;28;20530;-70
2021/01/19 01:40:30;;;;;;;64.67;35.43;;;0.10;74.10;;;;;;5035581;28;20029;-70
2021/01/19 01:42:57;;;;;;;64.53;36.97;;;0.10;74.20;;;;;;5035253;28;20479;-70
2021/01/19 01:45:26;;;;;;;61.03;35.80;;;0.00;74.30;;;;;;5035469;28;20018;-70
2021/01/19 01:48:01;;;;;;;58.20;35.03;;;0.10;74.50;;;;;;5035511;28;20120;-70
2021/01/19 01:50:27;;;;;;;67.10;37.27;;;;;;;;;;5035258;28;20021;-70
2021/01/19 01:52:53;;;;;;;60.23;34.80;;;;;;;;;;5035180;28;20104;-70
2021/01/19 01:55:20;;;;;;;66.10;35.60;;;;;;;;;;5035366;28;20051;-70
2021/01/19 01:57:47;;;;;;;58.57;34.20;;;;;;;;;;5034231;28;20029;-70
2021/01/19 02:00:13;;;;;;;59.20;34.63;;;;;;;;;;5032528;28;20083;-70
2021/01/19 02:02:49;;;;;;;54.43;31.10;;;;;;;;;;5032285;28;20121;-70
2021/01/19 02:05:15;;;;;;;54.13;31.70;;;;;;;;;;5033852;28;20060;-70
2021/01/19 02:07:59;;;;;;;56.13;30.43;;;;;;;;;;5034572;28;20056;-70
2021/01/19 02:10:43;;;;;;;44.17;28.20;;;;;;;;;;5034524;28;20025;-70
2021/01/19 02:13:18;;;;;;;57.03;28.10;;;;;;;;;;5034560;28;20018;-70
2021/01/19 02:16:00;;;;;;;46.23;26.80;;;;;;;;;;5034743;28;20029;-70
2021/01/19 02:18:53;;;;;;;48.80;28.63;;;;;;;;;;5034560;28;20037;-70
2021/01/19 02:21:35;;;;;;;49.97;26.83;;;;;;;;;;5034068;28;20037;-70
2021/01/19 02:24:06;;;;;;;45.90;25.87;;;;;;;;;;5034738;28;20475;-70
2021/01/19 02:26:32;;;;;;;44.03;27.00;;;;;;;;;;5034184;28;20029;-70
2021/01/19 02:29:02;;;;;;;49.57;27.93;;;;;;;;;;5034201;28;20045;-70
2021/01/19 02:31:46;;;;;;;50.20;28.73;;;;;;;;;;5034158;28;20025;-70
2021/01/19 02:34:17;;;;;;;52.40;30.83;;;;;;;;;;5033581;28;20021;-70
2021/01/19 02:36:51;;;;;;;53.13;32.20;;;;;;;;;;5034104;28;20053;-70
2021/01/19 02:39:23;;;;;;;55.20;31.67;;;;;;;;;;5034342;28;20029;-70
2021/01/19 02:41:50;;;;;;;56.20;31.63;;;;;;;;;;5034199;28;20029;-70
2021/01/19 02:44:19;;;;;;;59.27;32.77;;;;;;;;;;5034218;28;20057;-69
2021/01/19 02:46:50;;;;;;;55.70;32.77;;;;;;;;;;5034125;28;20108;-69
2021/01/19 02:49:16;;;;;;;58.03;32.97;;;;;;;;;;5034234;28;20037;-69
2021/01/19 02:51:43;;;;;;;56.07;33.57;;;;;;;;;;5034224;28;20104;-70
2021/01/19 02:54:09;;;;;;;57.73;34.53;;;;;;;;;;5034061;28;20537;-70
2021/01/19 02:56:39;;;;;;;56.30;34.37;;;;;;;;;;5033980;28;20485;-70
2021/01/19 02:59:11;;;;;;;58.53;33.83;;;;;;;;;;5034099;28;20049;-70
2021/01/19 03:01:42;;;;;;;59.57;33.83;;;;;;;;;;5033621;28;20037;-70
2021/01/19 03:04:09;;;;;;;54.93;32.77;;;;;;;;;;5033856;28;20025;-70
2021/01/19 03:06:35;;;;;;;57.80;32.40;;;;;;;;;;5033817;28;20030;-70
2021/01/19 03:09:02;;;;;;;52.90;30.17;;;;;;;;;;5033857;28;20057;-70
2021/01/19 03:11:28;;;;;;;50.00;29.77;;;;;;;;;;5033873;28;20031;-70
2021/01/19 03:13:54;;;;;;;54.90;30.40;;;;;;;;;;5033584;28;20071;-70
2021/01/19 03:16:23;;;;;;;50.40;30.33;;;;;;;;;;5033753;28;20033;-70
2021/01/19 03:18:51;;;;;;;54.00;30.50;;;;;;;;;;5033812;28;20029;-70
2021/01/19 03:21:17;;;;;;;56.03;31.60;;;;;;;;;;5033965;28;20033;-70
2021/01/19 03:23:43;;;;;;;49.97;29.40;;;;;;;;;;5033810;28;20108;-70
2021/01/19 03:26:10;;;;;;;53.13;29.27;;;;;;;;;;5033494;28;20025;-70
2021/01/19 03:28:36;;;;;;;48.23;29.27;;;;;;;;;;5033237;28;20054;-70
2021/01/19 03:31:02;;;;;;;57.77;30.33;;;;;;;;;;5033301;28;20053;-70
2021/01/19 03:33:28;;;;;;;55.23;31.80;;;;;;;;;;5033768;28;20040;-70
2021/01/19 03:35:54;;;;;;;53.87;29.73;;;;;;;;;;5033466;28;20060;-70
2021/01/19 03:38:20;;;;;;;55.63;28.20;;;;;;;;;;5033344;28;20087;-70
2021/01/19 03:40:47;;;;;;;51.93;28.13;;;;;;;;;;5033595;28;20069;-70
2021/01/19 03:43:13;;;;;;;51.00;28.63;;;;;;;;;;5033621;28;20067;-70
2021/01/19 03:45:39;;;;;;;44.10;28.00;;;;;;;;;;5032567;28;20445;-70
2021/01/19 03:48:05;;;;;;;44.90;28.33;;;;;;;;;;5033324;28;20467;-70
2021/01/19 03:50:32;;;;;;;44.77;27.43;;;;;;;;;;5032937;28;20032;-70
2021/01/19 03:52:58;;;;;;;45.80;27.50;;;;;;;;;;5033142;28;20026;-70
2021/01/19 03:55:24;;;;;;;42.73;26.67;;;;;;;;;;5033805;28;20382;-70
2021/01/19 03:57:50;;;;;;;49.70;26.47;;;;;;;;;;5033064;28;20462;-70
2021/01/19 04:00:17;;;;;;;41.43;25.67;;;;;;;;;;5032912;28;20022;-70
2021/01/19 04:02:43;;;;;;;48.77;26.03;;;;;;;;;;5032726;28;20521;-70
2021/01/19 04:05:10;;;;;;;43.27;25.80;;;;;;;;;;5033161;28;20032;-70
2021/01/19 04:07:39;;;;;;;47.77;25.13;;;;;;;;;;5033198;28;20021;-70
2021/01/19 04:10:07;;;;;;;44.50;25.30;;;;;;;;;;5033196;28;20021;-70
2021/01/19 04:12:33;;;;;;;43.03;25.73;;;;;;;;;;5032984;28;20510;-70
2021/01/19 04:14:59;;;;;;;39.03;25.40;;;;;;;;;;5032893;28;20026;-70
2021/01/19 04:17:25;;;;;;;45.83;25.83;;;;;;;;;;5032820;28;20030;-70
2021/01/19 04:19:51;;;;;;;42.10;23.83;;;;;;;;;;5033023;28;20072;-70
2021/01/19 04:22:17;;;;;;;42.87;24.57;;;;;;;;;;5031514;28;20449;-70
2021/01/19 04:24:43;;;;;;;39.17;24.90;;;;;;;;;;5032769;28;20022;-70
2021/01/19 04:27:09;;;;;;;43.90;25.97;;;;;;;;;;5032409;28;20026;-71
2021/01/19 04:29:35;;;;;;;43.00;25.60;;;;;;;;;;5032807;28;20032;-70
2021/01/19 04:32:01;;;;;;;40.43;26.00;;;;;;;;;;5033163;28;20029;-70
2021/01/19 04:34:27;;;;;;;41.63;24.27;;;;;;;;;;5032860;28;20028;-70
2021/01/19 04:36:53;;;;;;;45.43;24.70;;;;;;;;;;5032831;28;20087;-70
2021/01/19 04:39:19;;;;;;;40.47;24.10;;;;;;;;;;5032671;28;20021;-70
2021/01/19 04:41:47;;;;;;;36.80;22.90;;;;;;;;;;5032791;28;20037;-70
2021/01/19 04:44:13;;;;;;;37.60;23.10;;;;;;;;;;5033009;28;20379;-70
2021/01/19 04:46:40;;;;;;;40.17;22.77;;;;;;;;;;5032613;28;20036;-70
2021/01/19 04:49:07;;;;;;;39.80;22.60;;;;;;;;;;5032743;28;20478;-70
2021/01/19 04:51:34;;;;;;;37.30;22.30;;;;;;;;;;5032906;28;20475;-70
2021/01/19 04:54:04;;;;;;;34.30;21.60;;;;;;;;;;5032550;28;20028;-70
2021/01/19 04:56:30;;;;;;;37.40;21.50;;;;;;;;;;5033304;28;20041;-70
2021/01/19 04:58:57;;;;;;;38.10;21.87;;;;;;;;;;5036302;28;20083;-69
2021/01/19 05:01:35;;;;;;;43.53;23.07;;;;;;;;;;5036067;28;20413;-70
2021/01/19 05:04:17;;;;;;;35.47;22.53;;;;;;;;;;5036413;28;20021;-70
2021/01/19 05:06:43;;;;;;;38.43;22.43;;;;;;;;;;5036167;28;20024;-70
2021/01/19 05:09:09;;;;;;;41.17;22.97;;;;;;;;;;5036338;28;20383;-70
2021/01/19 05:11:48;;;;;;;40.13;21.90;;;;;;;;;;5036013;28;20029;-70
2021/01/19 05:14:18;;;;;;;38.30;22.53;;;;;;;;;;5036269;28;20390;-70
2021/01/19 05:16:44;;;;;;;39.30;23.40;;;;;;;;;;5036046;28;20017;-70
2021/01/19 05:19:10;;;;;;;36.63;21.30;;;;;;;;;;5036088;28;20079;-70
2021/01/19 05:21:37;;;;;;;36.70;22.73;;;;;;;;;;5035740;28;20040;-70
2021/01/19 05:24:04;;;;;;;38.90;22.13;;;;;;;;;;5035991;28;20378;-70
2021/01/19 05:26:32;;;;;;;38.27;22.73;;;;;;;;;;5036132;28;20026;-70
2021/01/19 05:28:59;;;;;;;38.93;23.47;;;;;;;;;;5034534;28;20045;-70
2021/01/19 05:31:26;;;;;;;37.50;21.27;;;;;;;;;;5035821;28;20036;-70
2021/01/19 05:33:52;;;;;;;40.57;22.53;;;;;;;;;;5035787;28;20017;-70
2021/01/19 05:36:19;;;;;;;37.40;22.47;;;;;;;;;;5035667;28;20147;-70
2021/01/19 05:38:49;;;;;;;35.37;21.87;;;;;;;;;;5035793;28;20028;-70
2021/01/19 05:41:44;;;;;;;34.10;21.27;;;;;;;;;;5035910;28;20048;-70
2021/01/19 05:44:13;;;;;;;33.77;20.80;;;;;;;;;;5034455;28;20044;-70
2021/01/19 05:46:44;;;;;;;37.70;20.30;;;;;;;;;;5035403;28;20022;-70
2021/01/19 05:49:14;;;;;;;32.10;19.63;;;;;;;;;;5035646;28;20102;-70
2021/01/19 05:51:42;;;;;;;31.87;19.77;;;;;;;;;;5035698;28;20017;-70
2021/01/19 05:54:09;;;;;;;37.17;20.30;;;;;;;;;;5035294;28;20082;-70
2021/01/19 05:56:37;;;;;;;35.57;20.50;;;;;;;;;;5035136;28;20101;-70
2021/01/19 05:59:05;;;;;;;35.90;19.53;;;;;;;;;;5035193;28;20534;-70
2021/01/19 06:01:31;;;;;;;35.73;19.10;;;;;;;;;;5034949;28;20064;-70
2021/01/19 06:04:01;;;;;;;38.80;19.83;;;;;;;;;;5034981;28;20462;-70
2021/01/19 06:06:28;;;;;;;34.20;21.00;;;;;;;;;;5034810;28;20367;-70
2021/01/19 06:08:58;;;;;;;38.13;20.00;;;;;;;;;;5033835;28;20049;-70
2021/01/19 06:11:25;;;;;;;32.40;19.43;;;;;;;;;;5034764;28;20435;-70
2021/01/19 06:13:51;;;;;;;30.17;18.67;;;;;;;;;;5034787;28;20026;-70
2021/01/19 06:16:20;;;;;;;34.17;19.70;;;;;;;;;;5035065;28;20029;-70
2021/01/19 06:18:46;;;;;;;38.13;20.00;;;;;;;;;;5035059;28;20033;-70
2021/01/19 06:21:25;;;;;;;32.63;19.77;;;;;;;;;;5034983;28;20029;-70
2021/01/19 06:23:51;;;;;;;29.50;18.87;;;;;;;;;;5033571;28;20030;-70
2021/01/19 06:26:17;;;;;;;34.20;20.23;;;;;;;;;;5034706;28;20624;-70
2021/01/19 06:28:43;;;;;;;32.10;19.23;;;;;;;;;;5034366;28;20069;-70
2021/01/19 06:31:17;;;;;;;35.27;21.13;;;;;;;;;;5034829;28;20033;-70
2021/01/19 06:33:46;;;;;;;32.77;20.07;;;;;;;;;;5034287;28;20030;-70
2021/01/19 06:36:12;;;;;;;35.13;19.53;;;;;;;;;;5034545;28;20034;-70
2021/01/19 06:38:43;;;;;;;35.23;20.00;;;;;;;;;;5034483;28;20030;-70
2021/01/19 06:41:11;;;;;;;30.53;19.50;;;;;;;;;;5034447;28;20026;-70
2021/01/19 06:43:40;;;;;;;44.90;18.57;;;;;;;;;;5034269;28;20034;-70
2021/01/19 06:46:08;;;;;;;35.03;20.77;;;;;;;;;;5034350;28;20025;-70
2021/01/19 06:48:35;;;;;;;33.30;20.23;;;;;;;;;;5034446;28;20124;-70
2021/01/19 06:51:04;;;;;;;32.00;20.13;;;;;;;;;;5034434;28;20398;-70
2021/01/19 06:53:37;;;;;;;31.47;20.80;;;;;;;;;;5034331;28;20200;-70
2021/01/19 06:56:09;;;;;;;35.65;21.63;;;;;;;;;;5034264;28;20025;-70
2021/01/19 06:58:44;;;;;;;44.25;20.88;;;;;;;;;;5035142;28;20104;-69
2021/01/19 07:01:15;;;;;;;39.00;22.00;;;;;;;;;;5033868;28;20033;-70
2021/01/19 07:03:41;;;;;;;36.40;21.87;;;;;;;;;;5033816;28;20024;-69
2021/01/19 07:06:08;;;;;;;40.10;22.30;;;;;;;;;;5033921;28;20029;-69
2021/01/19 07:08:41;;;;;;;41.90;23.73;;;;;;;;;;5033710;28;20018;-70
2021/01/19 07:11:14;;;;;;;43.20;22.63;;;;;;;;;;5034199;28;20026;-69
2021/01/19 07:13:42;;;;;;;39.47;23.17;;;;;;;;;;5034032;28;20029;-69
2021/01/19 07:16:08;;;;;;;38.30;23.47;;;;;;;;;;5033838;28;20043;-69
2021/01/19 07:18:34;;;;;;;38.90;23.00;;;;;;;;;;5033685;28;20033;-70
2021/01/19 07:21:02;;;;;;;47.57;23.80;;;;;;;;;;5033608;28;20022;-69
2021/01/19 07:23:47;;;;;;;58.80;24.87;;;;;;;;;;5033843;28;20064;-70
2021/01/19 07:26:13;;;;;;;46.77;24.13;;;;;;;;;;5033072;28;20017;-70
2021/01/19 07:28:39;;;;;;;43.57;23.17;;;;;;;;;;5033262;28;20052;-69
2021/01/19 07:31:05;;;;;;;41.43;23.87;;;;;;;;;;5033756;28;20475;-69
2021/01/19 07:33:33;;;;;;;44.30;23.80;;;;;;;;;;5033378;28;20026;-69
2021/01/19 07:35:59;;;;;;;39.50;23.67;;;;;;;;;;5033188;28;20100;-70
2021/01/19 07:38:26;;;;;;;39.10;23.33;;;;;;;;;;5031499;28;20021;-70
2021/01/19 07:40:52;;;;;;;38.57;23.23;;;;;;;;;;5031265;28;20021;-71
2021/01/19 07:43:19;;;;;;;40.63;24.00;;;;;;;;;;5031958;28;20052;-70
2021/01/19 07:45:52;;;;;;;39.47;22.77;;;;;;;;;;5031778;28;20093;-71
2021/01/19 07:48:28;;;;;;;42.20;23.00;;;;;;;;;;5029413;28;20033;-71
2021/01/19 07:50:54;;;;;;;44.10;23.20;;;;;;;;;;5031048;28;20381;-70
2021/01/19 07:53:20;;;;;;;39.77;24.10;;;;;;;;;;5042488;28;20017;-71
2021/01/19 07:55:48;;;;;;;39.77;23.57;;;;;;;;;;5050832;28;20111;-70
2021/01/19 07:58:15;;;;;;;49.90;26.93;;;;;;;;;;5051018;28;20150;-70
2021/01/19 08:00:44;;;;;;;47.20;26.60;;;;;;;;;;5051145;28;20074;-70
2021/01/19 08:03:10;;;;;;;56.23;38.47;;;;;;;;;;5041765;28;20112;-70
2021/01/19 08:05:36;;;;;;;56.73;37.97;;;;;;;;;;5039929;28;20025;-70
2021/01/19 08:08:16;;;;;;;49.47;30.53;;;;;;;;;;5050735;28;20029;-70
2021/01/19 08:10:52;;;;;;;50.73;25.83;;;;;;;;;;5050746;28;20017;-69
2021/01/19 08:13:21;;;;;;;55.37;28.30;;;;;;;;;;5051411;28;20088;-70
2021/01/19 08:15:48;;;;;;;50.83;29.30;;;;;;;;;;5050091;28;20025;-71
2021/01/19 08:18:17;;;;;;;54.73;31.20;;;;;;;;;;5049213;28;20025;-67
2021/01/19 08:20:45;;;;;;;50.40;29.87;;;;;;;;;;5048616;28;20052;-68
2021/01/19 08:23:12;;;;;;;49.43;29.23;;;;;;;;;;5050810;28;20033;-69
2021/01/19 08:25:39;;;;;;;57.63;31.07;;;;;;;;;;5051528;28;20075;-67
2021/01/19 08:28:05;;;;;;;55.70;31.13;;;;;;;;;;5051197;28;20049;-69
2021/01/19 08:30:31;;;;;;;51.83;30.50;;;;;;;;;;5050721;28;20097;-68
2021/01/19 08:32:58;;;;;;;56.83;32.13;;;;;;;;;;5054853;28;20100;-68
2021/01/19 08:35:29;;;;;;;60.27;35.17;;;;;;;;;;5056133;28;20017;-68
2021/01/19 08:37:56;;;;;;;64.37;34.50;;;;;;;;;;5054367;28;20104;-68
2021/01/19 08:40:26;;;;;;;61.73;33.40;;;;;;;;;;5055173;28;20523;-67
2021/01/19 08:42:52;;;;;;;67.40;36.00;;;;;;;;;;5055108;28;20075;-69
2021/01/19 08:45:22;;;;;;;62.00;35.00;;;;;;;;;;5054788;28;20389;-69
2021/01/19 08:47:51;;;;;;;64.97;34.67;;;;;;;;;;5048225;28;20087;-68
2021/01/19 08:50:18;;;;;;;55.17;34.27;;;;;;;;;;5053656;28;20029;-67
2021/01/19 08:52:44;;;;;;;60.70;34.90;;;;;;;;;;5052500;28;20040;-68
2021/01/19 08:55:17;;;;;;;57.67;34.50;;;;;;;;;;5052575;28;20482;-68
2021/01/19 08:57:49;;;;;;;56.30;35.37;;;;;;;;;;5053779;28;20029;-68
2021/01/19 09:00:22;;;;;;;54.40;32.87;;;;;;;;;;5056082;28;20029;-68
2021/01/19 09:02:48;;;;;;;52.43;31.00;;;;;;;;;;5056161;28;20037;-68
2021/01/19 09:05:22;;;;;;;48.70;30.53;;;;;;;;;;5056381;28;20021;-68
2021/01/19 09:07:48;;;;;;;50.70;29.73;;;;;;;;;;5056041;28;20032;-67
2021/01/19 09:10:35;;;;;;;47.43;27.73;;;;;;;;;;5056101;28;20024;-68
2021/01/19 09:13:01;;;;;;;46.20;27.83;;;;;;;;;;5055698;28;20127;-68
2021/01/19 09:15:27;;;;;;;46.57;28.20;;;;;;;;;;5055132;28;20036;-68
2021/01/19 09:17:57;;;;;;;50.03;29.73;;;;;;;;;;5055645;28;20536;-68
2021/01/19 09:20:23;;;;;;;53.97;30.23;;;;;;;;;;5056009;28;20401;-68
2021/01/19 09:22:49;;;;;;;55.77;31.97;;;;;;;;;;5055833;28;20043;-68
2021/01/19 09:25:18;;;;;;;50.17;29.43;;;;;;;;;;5055882;28;20029;-68
2021/01/19 09:27:45;;;;;;;48.90;28.60;;;;;;;;;;5055396;28;20037;-68
2021/01/19 09:30:13;;;;;;;48.67;28.07;;;;;;;;;;5055791;28;20347;-68
2021/01/19 09:32:40;;;;;;;45.93;27.57;;;;;;;;;;5055070;28;20021;-68
2021/01/19 09:35:06;;;;;;;43.67;26.03;;;;;;;;;;5055483;28;20139;-68
2021/01/19 09:37:32;;;;;;;48.37;27.57;;;;;;;;;;5055149;28;20066;-68
2021/01/19 09:39:58;;;;;;;45.37;27.00;;;;;;;;;;5055480;28;20036;-68
2021/01/19 09:42:25;;;;;;;44.23;25.30;;;;;;;;;;5055052;28;20033;-68
2021/01/19 09:44:51;;;;;;;38.30;24.27;;;;;;;;;;5054704;28;20406;-68
2021/01/19 09:47:22;;;;;;;40.53;23.83;;;;;;;;;;5055354;28;20037;-68
2021/01/19 09:49:51;;;;;;;39.97;24.97;;;;;;;;;;5055281;28;20386;-68
2021/01/19 09:52:17;;;;;;;41.40;24.60;;;;;;;;;;5055457;28;20481;-68
2021/01/19 09:54:43;;;;;;;41.23;23.67;;;;;;;;;;5055218;28;20100;-68
2021/01/19 09:57:09;;;;;;;42.23;24.80;;;;;;;;;;5055198;28;20025;-68
2021/01/19 09:59:36;;;;;;;45.03;27.30;;;;;;;;;;5055199;28;20088;-68
2021/01/19 10:02:02;;;;;;;43.90;27.23;;;;;;;;;;5055211;28;20083;-68
2021/01/19 10:04:30;;;;;;;45.67;27.67;;;;;;;;;;5053697;28;20385;-68
2021/01/19 10:07:03;;;;;;;36.73;23.97;;;;;;;;;;5055068;28;20414;-68
2021/01/19 10:09:29;;;;;;;37.10;21.88;;;;;;;;;;5055245;28;20049;-68
2021/01/19 10:12:02;;;;;;;36.43;21.37;;;;;;;;;;5054998;28;20025;-68
2021/01/19 10:14:41;;;;;;;35.27;21.00;;;;;;;;;;5054913;28;20031;-68
2021/01/19 10:17:07;;;;;;;26.50;16.93;;;;;;;;;;5054806;28;20033;-68
2021/01/19 10:19:35;;;;;;;30.00;17.80;;;;;;;;;;5054786;28;20373;-68
2021/01/19 10:22:05;;;;;;;24.30;15.70;;;;;;;;;;5054552;28;20029;-68
2021/01/19 10:24:32;;;;;;;24.37;16.00;;;;;;;;;;5054946;28;20027;-69
2021/01/19 10:26:58;;;;;;;27.27;16.00;;;;;;;;;;5054630;28;20024;-68
2021/01/19 10:29:24;;;;;;;24.93;16.27;;;;;;;;;;5054519;28;20524;-68
2021/01/19 10:31:54;;;;;;;26.13;15.97;;;;;;;;;;5054264;28;20025;-68
2021/01/19 10:34:21;;;;;;;26.63;16.03;;;;;;;;;;5053897;28;20017;-68
2021/01/19 10:36:54;;;;;;;24.20;16.37;;;;;;;;;;5053996;28;20029;-69
2021/01/19 10:39:20;;;;;;;;;;;;;;;;;;5054658;28;20386;-69
2021/01/19 10:41:47;;;;;;;29.27;15.77;;;;;;;;;;5054140;28;19919;-69
2021/01/19 10:44:14;;;;;;;28.23;16.07;;;;;;;;;;5053366;28;20028;-68
2021/01/19 10:46:40;;;;;;;29.30;17.17;;;;;;;;;;5053544;28;20025;-68
2021/01/19 10:49:07;;;;;;;28.57;17.40;;;;;;;;;;5053506;28;20021;-68
2021/01/19 10:51:34;;;;;;;29.63;17.77;;;;;;;;;;5054153;28;20167;-69
2021/01/19 10:54:22;;;;;;;27.63;18.00;;;;;;;;;;5053829;28;20025;-69
2021/01/19 10:56:59;;;;;;;30.67;17.83;;;;;;;;;;5053626;28;20036;-69
2021/01/19 10:59:25;;;;;;;30.93;18.53;;;;;;;;;;5054098;28;20083;-68
2021/01/19 11:01:51;;;;;;;32.57;20.97;;;;;;;;;;5053630;28;20048;-68
2021/01/19 11:04:17;;;;;;;157.63;76.70;;;;;;;;;;5054039;28;20116;-68
2021/01/19 11:06:43;;;;;;;138.47;68.57;;;;;;;;;;5053790;28;20021;-68
2021/01/19 11:09:09;;;;;;;54.30;28.00;;;;;;;;;;5053562;28;20032;-68
2021/01/19 11:11:35;;;;;;;37.03;19.57;;;;;;;;;;5052130;28;20382;-70
2021/01/19 11:14:05;;;;;;;27.67;14.93;;;;;;;;;;5053255;28;20025;-68
2021/01/19 11:16:38;;;;;;;25.40;15.30;;;;;;;;;;5053468;28;20557;-68
2021/01/19 11:19:06;;;;;;;27.70;15.87;;;;;;;;;;5053639;28;20104;-69
2021/01/19 11:21:32;;;;;;;22.43;13.87;;;;;;;;;;5053797;28;20045;-68
2021/01/19 11:23:59;;;;;;;31.33;14.93;;;;;;;;;;5053379;28;20383;-68
2021/01/19 11:26:25;;;;;;;24.30;16.07;;;;;;;;;;5053755;28;20115;-68
2021/01/19 11:28:51;;;;;;;24.50;15.83;;;;;;;;;;5053213;28;20048;-68
2021/01/19 11:31:21;;;;;;;24.83;15.40;;;;;;;;;;5053152;28;20033;-68
2021/01/19 11:33:47;;;;;;;24.23;14.50;;;;;;;;;;5053284;28;20029;-68
2021/01/19 11:36:20;;;;;;;21.00;14.90;;;;;;;;;;5053561;28;20045;-68
2021/01/19 11:38:47;;;;;;;21.90;14.03;;;;;;;;;;5053156;28;20021;-68
2021/01/19 11:41:26;;;;;;;21.63;14.40;;;;;;;;;;5053252;28;20025;-68
2021/01/19 11:43:52;;;;;;;24.03;14.50;;;;;;;;;;5053013;28;20029;-68
2021/01/19 11:46:38;;;;;;;24.93;15.03;;;;;;;;;;5053453;28;20470;-68
2021/01/19 11:49:05;;;;;;;25.53;15.20;;;;;;;;;;5053093;28;20474;-68
2021/01/19 11:51:32;;;;;;;28.63;15.53;;;;;;;;;;5052949;28;20029;-68
2021/01/19 11:53:59;;;;;;;22.33;15.77;;;;;;;;;;5053098;28;20531;-68
2021/01/19 11:56:38;;;;;;;22.83;15.27;;;;;;;;;;5053304;28;20033;-68
2021/01/19 11:59:05;;;;;;;24.67;16.17;;;;;;;;;;5053153;28;20029;-69
2021/01/19 12:01:31;;;;;;;26.47;16.33;;;;;;;;;;5053070;28;20033;-68
2021/01/19 12:03:57;;;;;;;29.00;18.57;;;;;;;;;;5052636;28;20377;-68
2021/01/19 12:06:23;;;;;;;28.40;18.43;;;;;;;;;;5052065;28;20037;-68
2021/01/19 12:08:50;;;;;;;24.43;16.13;;;;;;;;;;5052697;28;20021;-69
2021/01/19 12:11:17;;;;;;;29.97;17.10;;;;;;;;;;5052848;28;20023;-70
2021/01/19 12:13:44;;;;;;;25.53;16.60;;;;;;;;;;5052751;28;20021;-70
2021/01/19 12:16:10;;;;;;;23.97;15.30;;;;;;;;;;5053061;28;20063;-70
2021/01/19 12:18:37;;;;;;;25.10;15.57;;;;;;;;;;5052951;28;20021;-69
2021/01/19 12:21:04;;;;;;;23.03;15.40;;;;;;;;;;5052888;28;20049;-68
2021/01/19 12:23:30;;;;;;;25.30;15.03;;;;;;;;;;5052911;28;20029;-69
2021/01/19 12:25:57;;;;;;;22.60;14.50;;;;;;;;;;5052038;28;20100;-68
2021/01/19 12:28:23;;;;;;;20.97;14.23;;;;;;;;;;5049653;28;20082;-69
2021/01/19 12:30:49;;;;;;;23.83;14.07;;;;;;;;;;5050127;28;20028;-69
2021/01/19 12:33:15;;;;;;;19.83;12.80;;;;;;;;;;5051348;28;20032;-70
2021/01/19 12:35:41;;;;;;;17.50;12.70;;;;;;;;;;5052494;28;20053;-71
2021/01/19 12:38:07;;;;;;;23.17;14.67;;;;;;;;;;5052420;28;20071;-70
2021/01/19 12:40:33;;;;;;;24.53;16.27;;;;;;;;;;5052790;28;20382;-68
2021/01/19 12:42:59;;;;;;;40.83;26.77;;;;;;;;;;5052139;28;20087;-68
2021/01/19 12:45:26;;;;;;;26.50;15.23;;;;;;;;;;5052473;28;20029;-68
2021/01/19 12:47:52;;;;;;;24.07;14.77;;;;;;;;;;5052387;28;20032;-68
2021/01/19 12:50:19;;;;;;;20.73;13.07;;;;;;;;;;5052323;28;20059;-68
2021/01/19 12:52:45;;;;;;;18.47;13.10;;;;;;;;;;5052440;28;20043;-68
2021/01/19 12:55:12;;;;;;;20.63;12.67;;;;;;;;;;5052692;28;20386;-69
2021/01/19 12:57:38;;;;;;;21.53;13.27;;;;;;;;;;5052258;28;20025;-68
2021/01/19 13:00:05;;;;;;;22.50;12.53;;;0.10;74.50;;;;;;5051131;28;20405;-68
2021/01/19 13:02:32;;;;;;;21.37;14.20;;;4.70;71.30;;;;;;5052472;28;20041;-68
2021/01/19 13:04:59;;;;;;;18.70;13.30;;;4.70;71.10;;;;;;5052128;28;20030;-70
2021/01/19 13:07:25;;;;;;;18.03;12.87;;;4.70;71.00;;;;;;5052477;28;20033;-69
2021/01/19 13:09:52;;;;;;;18.27;12.27;;;4.70;70.90;;;;;;5052364;28;20025;-69
2021/01/19 13:12:20;;;;;;;22.17;12.37;;;4.70;71.20;;;;;;5051816;28;20068;-69
2021/01/19 13:14:49;;;;;;;17.13;12.70;;;4.70;71.40;;;;;;5052166;28;20067;-69
2021/01/19 13:17:15;;;;;;;19.17;13.53;;;4.70;71.70;;;;;;5052852;28;20031;-69
2021/01/19 13:19:41;;;;;;;21.37;13.03;;;4.80;71.00;;;;;;5055519;28;20385;-69
2021/01/19 13:22:07;;;;;;;22.40;13.17;;;4.80;71.10;;;;;;5055834;28;20037;-69
2021/01/19 13:24:32;;;;;;;17.80;13.97;;;4.80;70.90;;;;;;5054847;28;20035;-71
2021/01/19 13:26:58;;;;;;;19.20;14.00;;;4.90;70.90;;;;;;5052819;28;20033;-69
2021/01/19 13:29:24;;;;;;;19.37;13.17;;;4.90;71.00;;;;;;5052791;28;20044;-70
2021/01/19 13:31:50;;;;;;;17.43;12.53;;;4.90;71.00;;;;;;5055657;28;20036;-69
2021/01/19 13:34:16;;;;;;;20.10;12.77;;;4.90;71.00;;;;;;5055496;28;20025;-69
2021/01/19 13:36:42;;;;;;;21.20;12.63;;;4.90;70.90;;;;;;5055653;28;20043;-69
2021/01/19 13:39:09;;;;;;;18.97;13.20;;;4.90;70.80;;;;;;5055368;28;20021;-69
2021/01/19 13:41:35;;;;;;;19.77;14.10;;;5.00;70.70;;;;;;5055661;28;20482;-69
2021/01/19 13:44:01;;;;;;;21.27;15.07;;;5.00;70.70;;;;;;5055537;28;20032;-69
2021/01/19 13:46:26;;;;;;;19.97;13.93;;;5.00;70.80;;;;;;5055724;28;20029;-69
2021/01/19 13:48:54;;;;;;;26.97;15.77;;;4.90;70.70;;;;;;5055390;28;20100;-69
2021/01/19 13:51:21;;;;;;;23.70;16.60;;;5.00;70.90;;;;;;5055408;28;20025;-69
2021/01/19 13:53:46;;;;;;;25.00;16.40;;;5.00;70.80;;;;;;5055284;28;20393;-69
2021/01/19 13:56:12;;;;;;;27.07;17.70;;;4.90;71.00;;;;;;5055220;28;20028;-69
2021/01/19 13:58:38;;;;;;;25.03;15.90;;;4.90;71.10;;;;;;5054860;28;20071;-68
2021/01/19 14:01:03;;;;;;;20.63;15.63;;;5.00;71.00;;;;;;5054852;28;20028;-69
2021/01/19 14:03:30;;;;;;;27.63;15.27;;;4.90;70.90;;;;;;5053930;28;20083;-69
2021/01/19 14:05:55;;;;;;;39.87;23.70;;;4.90;70.80;;;;;;5053347;28;20055;-69
2021/01/19 14:08:21;;;;;;;28.20;18.17;;;4.90;70.70;;;;;;5053742;28;20029;-69